createdAt,value
2023-01-17T00:01:34.531Z,1.38
2023-01-17T00:04:20.331Z,1.41
2023-01-17T00:07:06.206Z,1.38
2023-01-17T00:09:52.001Z,1.35
2023-01-17T00:12:22.324Z,1.29
2023-01-17T00:14:49.389Z,1.22
2023-01-17T00:17:16.520Z,1.21
2023-01-17T00:20:02.513Z,1.22
2023-01-17T00:22:49.321Z,1.20
2023-01-17T00:25:39.714Z,1.19
2023-01-17T00:28:06.962Z,1.17
2023-01-17T00:30:37.005Z,1.12
2023-01-17T00:33:04.125Z,1.09
2023-01-17T00:35:33.949Z,1.12
2023-01-17T00:38:07.547Z,1.11
2023-01-17T00:40:35.405Z,1.03
2023-01-17T00:43:21.212Z,0.99
2023-01-17T00:46:07.181Z,0.97
2023-01-17T00:48:52.986Z,0.94
2023-01-17T00:51:38.882Z,0.88
2023-01-17T00:54:24.761Z,0.81
2023-01-17T00:57:11.046Z,0.76
2023-01-17T00:59:56.933Z,0.72
2023-01-17T01:02:42.886Z,0.75
2023-01-17T01:05:28.817Z,0.78
2023-01-17T01:08:15.043Z,0.77
2023-01-17T01:11:01.826Z,0.74
2023-01-17T01:13:48.175Z,0.63
2023-01-17T01:16:34.570Z,0.59
2023-01-17T01:19:20.511Z,0.61
2023-01-17T01:22:06.506Z,0.68
2023-01-17T01:24:52.595Z,0.71
2023-01-17T01:27:38.381Z,0.74
2023-01-17T01:30:25.195Z,0.72
2023-01-17T01:33:10.996Z,0.69
2023-01-17T01:35:38.025Z,0.66
2023-01-17T01:38:05.071Z,0.66
2023-01-17T01:40:32.223Z,0.65
2023-01-17T01:43:00.111Z,0.63
2023-01-17T01:45:29.135Z,0.56
2023-01-17T01:48:05.795Z,0.53
2023-01-17T01:50:34.243Z,0.50
2023-01-17T01:53:02.298Z,0.52
2023-01-17T01:55:36.461Z,0.55
2023-01-17T01:58:09.208Z,0.55
2023-01-17T02:00:36.803Z,0.48
2023-01-17T02:03:12.325Z,0.47
2023-01-17T02:05:40.073Z,0.47
2023-01-17T02:08:41.592Z,0.45
2023-01-17T02:11:11.030Z,0.46
2023-01-17T02:13:38.080Z,0.46
2023-01-17T02:16:16.413Z,0.43
2023-01-17T02:18:51.338Z,0.42
2023-01-17T02:21:28.503Z,0.44
2023-01-17T02:24:27.304Z,0.47
2023-01-17T02:27:11.853Z,0.45
2023-01-17T02:29:57.757Z,0.42
2023-01-17T02:32:51.627Z,0.40
2023-01-17T02:35:22.641Z,0.39
2023-01-17T02:38:01.543Z,0.46
2023-01-17T02:40:36.242Z,0.52
2023-01-17T02:43:06.961Z,0.56
2023-01-17T02:45:34.110Z,0.59
2023-01-17T02:48:01.244Z,0.59
2023-01-17T02:50:35.061Z,0.62
2023-01-17T02:53:05.169Z,0.61
2023-01-17T02:56:06.105Z,0.61
2023-01-17T02:59:01.827Z,0.67
2023-01-17T03:01:53.842Z,0.69
2023-01-17T03:04:44.879Z,0.64
2023-01-17T03:07:16.535Z,0.61
2023-01-17T03:09:47.570Z,0.61
2023-01-17T03:12:14.920Z,0.62
2023-01-17T03:14:42.081Z,0.60
2023-01-17T03:17:09.321Z,0.58
2023-01-17T03:19:36.470Z,0.56
2023-01-17T03:22:03.625Z,0.52
2023-01-17T03:24:30.772Z,0.53
2023-01-17T03:26:57.925Z,0.56
2023-01-17T03:29:25.066Z,0.55
2023-01-17T03:31:52.224Z,0.54
2023-01-17T03:34:19.286Z,0.57
2023-01-17T03:36:46.423Z,0.58
2023-01-17T03:39:13.565Z,0.57
2023-01-17T03:41:40.628Z,0.58
2023-01-17T03:44:07.760Z,0.57
2023-01-17T03:46:34.908Z,0.59
2023-01-17T03:49:01.974Z,0.58
2023-01-17T03:51:29.106Z,0.58
2023-01-17T03:53:56.210Z,0.54
2023-01-17T03:56:23.507Z,0.51
2023-01-17T03:58:51.805Z,0.53
2023-01-17T04:01:19.465Z,0.56
2023-01-17T04:03:46.716Z,0.58
2023-01-17T04:06:13.953Z,0.54
2023-01-17T04:08:41.920Z,0.49
2023-01-17T04:11:08.976Z,0.50
2023-01-17T04:13:36.114Z,0.50
2023-01-17T04:16:04.337Z,0.52
2023-01-17T04:18:31.546Z,0.55
2023-01-17T04:20:58.588Z,0.56
2023-01-17T04:23:25.736Z,0.54
2023-01-17T04:25:52.818Z,0.51
2023-01-17T04:28:19.933Z,0.48
2023-01-17T04:30:47.137Z,0.46
2023-01-17T04:33:14.537Z,0.47
2023-01-17T04:35:41.765Z,0.46
2023-01-17T04:38:08.877Z,0.43
2023-01-17T04:40:36.196Z,0.39
2023-01-17T04:43:03.249Z,0.39
2023-01-17T04:45:30.493Z,0.38
2023-01-17T04:48:03.169Z,0.35
2023-01-17T04:50:30.324Z,0.36
2023-01-17T04:52:57.471Z,0.30
2023-01-17T04:55:24.533Z,0.28
2023-01-17T04:57:51.571Z,0.28
2023-01-17T05:00:19.332Z,0.29
2023-01-17T05:02:46.514Z,0.30
2023-01-17T05:05:13.832Z,0.29
2023-01-17T05:07:41.088Z,0.31
2023-01-17T05:10:08.980Z,0.31
2023-01-17T05:12:36.003Z,0.27
2023-01-17T05:15:03.555Z,0.29
2023-01-17T05:17:30.620Z,0.28
2023-01-17T05:19:57.757Z,0.28
2023-01-17T05:22:24.949Z,0.28
2023-01-17T05:24:52.068Z,0.24
2023-01-17T05:27:19.105Z,0.22
2023-01-17T05:29:46.191Z,0.25
2023-01-17T05:32:13.396Z,0.28
2023-01-17T05:34:40.647Z,0.27
2023-01-17T05:37:07.698Z,0.26
2023-01-17T05:39:34.933Z,0.25
2023-01-17T05:42:02.115Z,0.26
2023-01-17T05:44:29.245Z,0.26
2023-01-17T05:46:56.703Z,0.28
2023-01-17T05:49:23.961Z,0.29
2023-01-17T05:51:52.411Z,0.29
2023-01-17T05:54:21.326Z,0.31
2023-01-17T05:56:48.626Z,0.34
2023-01-17T05:59:17.317Z,0.37
2023-01-17T06:01:48.102Z,0.41
2023-01-17T06:04:15.297Z,0.42
2023-01-17T06:06:42.503Z,0.44
2023-01-17T06:09:10.679Z,0.47
2023-01-17T06:11:37.831Z,0.48
2023-01-17T06:14:04.975Z,0.50
2023-01-17T06:16:32.020Z,0.53
2023-01-17T06:18:59.076Z,0.57
2023-01-17T06:21:26.129Z,0.66
2023-01-17T06:23:55.621Z,0.75
2023-01-17T06:26:23.021Z,0.78
2023-01-17T06:28:50.123Z,0.81
2023-01-17T06:31:17.502Z,0.82
2023-01-17T06:33:45.266Z,0.85
2023-01-17T06:36:13.009Z,0.86
2023-01-17T06:38:40.290Z,0.87
2023-01-17T06:41:07.464Z,0.90
2023-01-17T06:43:35.303Z,0.91
2023-01-17T06:46:02.466Z,0.96
2023-01-17T06:48:29.720Z,1.05
2023-01-17T06:50:58.286Z,1.12
2023-01-17T06:53:25.509Z,1.17
2023-01-17T06:55:56.248Z,1.20
2023-01-17T06:58:24.130Z,1.25
2023-01-17T07:00:51.647Z,1.27
2023-01-17T07:03:24.106Z,1.34
2023-01-17T07:05:51.532Z,1.41
2023-01-17T07:08:19.726Z,1.45
2023-01-17T07:10:47.652Z,1.44
2023-01-17T07:13:14.894Z,1.50
2023-01-17T07:15:42.424Z,1.58
2023-01-17T07:18:09.703Z,1.64
2023-01-17T07:20:38.803Z,1.67
2023-01-17T07:23:07.103Z,1.71
2023-01-17T07:33:13.598Z,1.93
2023-01-17T07:35:40.848Z,2.00
2023-01-17T07:38:39.192Z,2.09
2023-01-17T07:41:06.888Z,2.18
2023-01-17T07:43:35.787Z,2.21
2023-01-17T07:46:02.827Z,2.25
2023-01-17T07:48:31.047Z,2.25
2023-01-17T07:50:58.867Z,2.30
2023-01-17T07:53:27.137Z,2.30
2023-01-17T07:55:55.502Z,2.29
2023-01-17T07:58:28.149Z,2.35
2023-01-17T08:00:55.564Z,2.40
2023-01-17T08:03:22.809Z,2.45
2023-01-17T08:05:54.361Z,2.51
2023-01-17T08:08:22.141Z,2.52
2023-01-17T08:10:49.889Z,2.55
2023-01-17T08:13:17.242Z,2.61
2023-01-17T14:07:04.657Z,4.89
2023-01-17T14:09:42.196Z,4.86
2023-01-17T14:12:09.404Z,4.93
2023-01-17T14:14:45.537Z,5.03
2023-01-17T14:17:28.562Z,5.16
2023-01-17T14:19:57.935Z,5.29
2023-01-17T14:22:25.137Z,5.38
2023-01-17T14:25:17.782Z,5.45
2023-01-17T14:27:52.247Z,5.50
2023-01-17T14:30:40.363Z,5.54
2023-01-17T14:33:14.957Z,5.58
2023-01-17T14:35:58.173Z,5.62
2023-01-17T14:38:30.023Z,5.64
2023-01-17T14:41:00.280Z,5.63
2023-01-17T14:43:28.878Z,5.63
2023-01-17T14:46:01.182Z,5.63
2023-01-17T14:48:28.495Z,5.63
2023-01-17T14:50:58.987Z,5.63
2023-01-17T14:53:31.826Z,5.64
2023-01-17T14:56:13.639Z,5.65
2023-01-17T14:58:42.450Z,5.64
2023-01-17T15:01:18.039Z,5.64
2023-01-17T15:03:47.453Z,5.64
2023-01-17T15:06:26.048Z,5.65
2023-01-17T15:08:56.091Z,5.67
2023-01-17T15:11:30.023Z,5.67
2023-01-17T15:13:59.348Z,5.64
2023-01-17T15:16:33.847Z,5.60
2023-01-17T15:19:01.562Z,5.63
2023-01-17T15:21:32.917Z,5.63
2023-01-17T15:24:08.540Z,5.62
2023-01-17T15:26:41.020Z,5.60
2023-01-17T15:29:22.737Z,5.61
2023-01-17T15:31:58.820Z,5.60
2023-01-17T15:34:36.587Z,5.54
2023-01-17T15:37:09.034Z,5.51
2023-01-17T15:39:40.825Z,5.51
2023-01-17T15:42:20.484Z,5.50
2023-01-17T15:44:49.163Z,5.48
2023-01-17T15:47:31.584Z,5.49
2023-01-17T15:50:02.064Z,5.47
2023-01-17T15:52:29.333Z,5.42
2023-01-17T15:55:13.430Z,5.40
2023-01-17T15:57:40.828Z,5.40
2023-01-17T16:00:09.524Z,5.36
2023-01-17T16:02:42.905Z,5.34
2023-01-17T16:05:31.364Z,5.33
2023-01-17T16:08:04.522Z,5.32
2023-01-17T16:10:33.910Z,5.28
2023-01-17T16:13:01.971Z,5.26
2023-01-17T16:15:29.439Z,5.24
2023-01-17T16:18:15.885Z,5.18
2023-01-17T16:20:47.540Z,5.16
2023-01-17T16:23:14.791Z,5.16
2023-01-17T16:25:41.971Z,5.18
2023-01-17T16:28:09.502Z,5.14
2023-01-17T23:31:24.036Z,4.75
2023-01-17T23:33:51.440Z,4.84
2023-01-17T23:36:18.695Z,4.94
2023-01-17T23:38:45.740Z,5.04
2023-01-17T23:41:31.651Z,5.13
2023-01-17T23:43:58.899Z,5.21
2023-01-17T23:46:29.512Z,5.24
2023-01-17T23:48:56.578Z,5.27
2023-01-17T23:51:29.960Z,5.31
2023-01-17T23:54:04.785Z,5.27
2023-01-17T23:56:32.077Z,5.29
2023-01-17T23:59:00.728Z,5.29
